createdAt,value
2024-02-02T00:00:46.546Z,22.81
2024-02-02T00:01:46.499Z,22.79
2024-02-02T00:02:46.581Z,22.82
2024-02-02T00:03:46.543Z,22.81
2024-02-02T00:04:46.487Z,22.82
2024-02-02T00:05:46.517Z,22.81
2024-02-02T00:06:46.558Z,22.82
2024-02-02T00:07:46.504Z,22.81
2024-02-02T00:08:46.522Z,22.81
2024-02-02T00:09:46.511Z,22.84
2024-02-02T00:10:46.499Z,22.81
2024-02-02T00:11:46.595Z,22.82
2024-02-02T00:12:46.507Z,22.79
2024-02-02T00:13:46.509Z,22.81
2024-02-02T00:14:46.556Z,22.78
2024-02-02T00:15:46.510Z,22.79
2024-02-02T00:16:46.511Z,22.79
2024-02-02T00:17:46.540Z,22.79
2024-02-02T00:18:46.661Z,22.82
2024-02-02T00:19:46.565Z,22.79
2024-02-02T00:20:46.578Z,22.79
2024-02-02T00:21:46.513Z,22.82
2024-02-02T00:22:46.526Z,22.79
2024-02-02T00:23:46.571Z,22.81
2024-02-02T00:24:46.531Z,22.81
2024-02-02T00:25:46.525Z,22.79
2024-02-02T00:26:46.584Z,22.79
2024-02-02T00:27:46.534Z,22.79
2024-02-02T00:28:46.516Z,22.78
2024-02-02T00:29:46.585Z,22.81
2024-02-02T00:30:46.532Z,22.78
2024-02-02T00:31:46.556Z,22.81
2024-02-02T00:32:46.731Z,22.79
2024-02-02T00:33:46.601Z,22.78
2024-02-02T00:34:46.754Z,22.78
2024-02-02T00:35:46.609Z,22.79
2024-02-02T00:36:46.557Z,22.79
2024-02-02T00:37:46.543Z,22.76
2024-02-02T00:38:46.671Z,22.81
2024-02-02T00:39:46.551Z,22.79
2024-02-02T00:40:46.556Z,22.76
2024-02-02T00:41:46.552Z,22.79
2024-02-02T00:42:46.578Z,22.81
2024-02-02T00:43:46.566Z,22.79
2024-02-02T00:44:46.566Z,22.78
2024-02-02T00:45:46.568Z,22.76
2024-02-02T00:46:46.557Z,22.76
2024-02-02T00:47:46.649Z,22.75
2024-02-02T00:48:46.604Z,22.78
2024-02-02T00:49:46.840Z,22.76
2024-02-02T00:50:46.569Z,22.78
2024-02-02T00:51:46.557Z,22.78
2024-02-02T00:52:46.618Z,22.76
2024-02-02T00:53:46.588Z,22.76
2024-02-02T00:54:46.566Z,22.78
2024-02-02T00:55:46.565Z,22.76
2024-02-02T00:56:46.631Z,22.78
2024-02-02T00:57:46.594Z,22.78
2024-02-02T00:58:46.577Z,22.78
2024-02-02T00:59:46.576Z,22.76
2024-02-02T01:00:46.641Z,22.76
2024-02-02T01:01:46.583Z,22.76
2024-02-02T01:02:46.609Z,22.74
2024-02-02T01:03:46.688Z,22.76
2024-02-02T01:04:46.693Z,22.78
2024-02-02T01:05:46.641Z,22.76
2024-02-02T01:06:46.696Z,22.78
2024-02-02T01:07:46.593Z,22.79
2024-02-02T01:08:46.613Z,22.76
2024-02-02T01:09:46.611Z,22.76
2024-02-02T01:10:46.574Z,22.76
2024-02-02T01:11:46.580Z,22.75
2024-02-02T01:12:46.596Z,22.76
2024-02-02T01:13:46.579Z,22.75
2024-02-02T01:14:46.580Z,22.78
2024-02-02T01:15:46.583Z,22.75
2024-02-02T01:16:46.584Z,22.75
2024-02-02T01:17:46.712Z,22.74
2024-02-02T01:18:46.692Z,22.75
2024-02-02T01:19:46.637Z,22.74
2024-02-02T01:20:46.587Z,22.76
2024-02-02T01:21:46.597Z,22.74
2024-02-02T01:22:46.598Z,22.76
2024-02-02T01:23:46.593Z,22.75
2024-02-02T01:24:46.594Z,22.76
2024-02-02T01:25:46.610Z,22.74
2024-02-02T01:26:46.611Z,22.75
2024-02-02T01:27:46.672Z,22.74
2024-02-02T01:28:46.608Z,22.75
2024-02-02T01:29:46.615Z,22.72
2024-02-02T01:30:46.609Z,22.79
2024-02-02T01:31:46.616Z,22.75
2024-02-02T01:32:46.625Z,22.76
2024-02-02T01:33:46.765Z,22.74
2024-02-02T01:34:46.706Z,22.74
2024-02-02T01:35:46.606Z,22.76
2024-02-02T01:36:46.612Z,22.74
2024-02-02T01:37:46.629Z,22.76
2024-02-02T01:38:46.617Z,22.75
2024-02-02T01:39:46.612Z,22.75
2024-02-02T01:40:46.616Z,22.72
2024-02-02T01:41:46.614Z,22.74
2024-02-02T01:42:47.072Z,22.72
2024-02-02T01:43:46.626Z,22.72
2024-02-02T01:44:46.616Z,22.74
2024-02-02T01:45:46.626Z,22.72
2024-02-02T01:46:46.631Z,22.74
2024-02-02T01:47:46.687Z,22.74
2024-02-02T01:48:46.678Z,22.74
2024-02-02T01:49:46.789Z,22.74
2024-02-02T01:50:46.637Z,22.72
2024-02-02T01:51:46.614Z,22.74
2024-02-02T01:52:46.629Z,22.74
2024-02-02T01:53:46.631Z,22.76
2024-02-02T01:54:46.620Z,22.71
2024-02-02T01:55:46.637Z,22.74
2024-02-02T01:56:46.630Z,22.72
2024-02-02T01:57:46.623Z,22.72
2024-02-02T01:58:46.621Z,22.72
2024-02-02T01:59:46.634Z,22.74
2024-02-02T02:00:46.803Z,22.72
2024-02-02T02:01:46.649Z,22.74
2024-02-02T02:02:46.654Z,22.74
2024-02-02T02:03:46.879Z,22.72
2024-02-02T02:04:46.637Z,22.72
2024-02-02T02:05:46.699Z,22.72
2024-02-02T02:06:46.682Z,22.74
2024-02-02T02:07:46.643Z,22.71
2024-02-02T02:08:46.647Z,22.72
2024-02-02T02:09:46.663Z,22.74
2024-02-02T02:10:46.662Z,22.72
2024-02-02T02:11:46.677Z,22.74
2024-02-02T02:12:46.706Z,22.72
2024-02-02T02:13:46.731Z,22.72
2024-02-02T02:14:46.741Z,22.71
2024-02-02T02:15:46.750Z,22.71
2024-02-02T02:16:46.843Z,22.72
2024-02-02T02:17:46.848Z,22.71
2024-02-02T02:18:53.063Z,22.71
2024-02-02T02:19:47.904Z,22.72
2024-02-02T02:20:46.816Z,22.71
2024-02-02T02:21:46.824Z,22.71
2024-02-02T02:22:46.819Z,22.71
2024-02-02T02:23:46.818Z,22.71
2024-02-02T02:24:46.823Z,22.70
2024-02-02T02:25:46.826Z,22.72
2024-02-02T02:26:46.827Z,22.71
2024-02-02T02:27:46.846Z,22.71
2024-02-02T02:28:46.836Z,22.71
2024-02-02T02:29:46.836Z,22.68
2024-02-02T02:30:46.855Z,22.71
2024-02-02T02:31:46.874Z,22.71
2024-02-02T02:32:46.919Z,22.71
2024-02-02T02:33:47.037Z,22.71
2024-02-02T02:34:46.899Z,22.70
2024-02-02T02:35:46.873Z,22.71
2024-02-02T02:36:46.844Z,22.71
2024-02-02T02:37:46.842Z,22.71
2024-02-02T02:38:46.846Z,22.70
2024-02-02T02:39:46.846Z,22.70
2024-02-02T02:40:46.851Z,22.71
2024-02-02T02:41:46.844Z,22.71
2024-02-02T02:42:46.857Z,22.71
2024-02-02T02:43:46.879Z,22.70
2024-02-02T02:44:46.849Z,22.71
2024-02-02T02:45:46.859Z,22.71
2024-02-02T02:46:46.853Z,22.72
2024-02-02T02:47:46.944Z,22.71
2024-02-02T02:48:46.953Z,22.70
2024-02-02T02:49:46.941Z,22.71
2024-02-02T02:50:46.904Z,22.70
2024-02-02T02:51:46.913Z,22.71
2024-02-02T02:52:46.939Z,22.68
2024-02-02T02:53:46.954Z,22.70
2024-02-02T02:54:46.975Z,22.70
2024-02-02T02:55:47.003Z,22.71
2024-02-02T02:56:47.001Z,22.68
2024-02-02T02:57:47.027Z,22.71
2024-02-02T02:58:47.035Z,22.70
2024-02-02T02:59:47.053Z,22.70
2024-02-02T03:00:47.073Z,22.67
2024-02-02T03:01:47.093Z,22.70
2024-02-02T03:02:47.098Z,22.71
2024-02-02T03:03:47.218Z,22.70
2024-02-02T03:04:47.147Z,22.71
2024-02-02T03:05:47.145Z,22.67
2024-02-02T03:06:47.264Z,22.68
2024-02-02T03:07:47.184Z,22.68
2024-02-02T03:08:47.242Z,22.68
2024-02-02T03:09:47.223Z,22.70
2024-02-02T03:10:47.227Z,22.70
2024-02-02T03:11:47.252Z,22.70
2024-02-02T03:12:47.259Z,22.67
2024-02-02T03:13:47.270Z,22.67
2024-02-02T03:14:47.311Z,22.70
2024-02-02T03:15:47.315Z,22.70
2024-02-02T03:16:47.344Z,22.68
2024-02-02T03:17:47.402Z,22.68
2024-02-02T03:18:47.509Z,22.71
2024-02-02T03:19:47.477Z,22.68
2024-02-02T03:20:47.395Z,22.70
2024-02-02T03:21:47.434Z,22.68
2024-02-02T03:22:47.436Z,22.70
2024-02-02T03:23:47.441Z,22.67
2024-02-02T03:24:47.461Z,22.67
2024-02-02T03:25:47.490Z,22.68
2024-02-02T03:26:47.492Z,22.64
2024-02-02T03:27:47.508Z,22.67
2024-02-02T03:28:47.531Z,22.67
2024-02-02T03:29:47.645Z,22.68
2024-02-02T03:30:47.607Z,22.68
2024-02-02T03:31:47.631Z,22.67
2024-02-02T03:32:47.743Z,22.67
2024-02-02T03:33:47.776Z,22.67
2024-02-02T03:34:47.724Z,22.67
2024-02-02T03:35:47.683Z,22.68
2024-02-02T03:36:47.683Z,22.67
2024-02-02T03:37:47.735Z,22.65
2024-02-02T03:38:47.723Z,22.67
2024-02-02T03:39:47.744Z,22.67
2024-02-02T03:40:47.761Z,22.67
2024-02-02T03:41:47.781Z,22.68
2024-02-02T03:42:47.812Z,22.67
2024-02-02T03:43:47.845Z,22.67
2024-02-02T03:44:47.840Z,22.65
2024-02-02T03:45:47.859Z,22.68
2024-02-02T03:46:47.862Z,22.67
2024-02-02T03:47:47.897Z,22.65
2024-02-02T03:48:47.982Z,22.65
2024-02-02T03:49:47.957Z,22.65
2024-02-02T03:50:47.958Z,22.67
2024-02-02T03:51:47.947Z,22.67
2024-02-02T03:52:47.973Z,22.67
2024-02-02T03:53:47.987Z,22.67
2024-02-02T03:54:48.020Z,22.65
2024-02-02T03:55:48.048Z,22.68
2024-02-02T03:56:48.037Z,22.67
2024-02-02T03:57:48.092Z,22.67
2024-02-02T03:58:48.088Z,22.67
2024-02-02T03:59:48.121Z,22.64
2024-02-02T04:00:48.244Z,22.64
2024-02-02T04:01:48.217Z,22.67
2024-02-02T04:02:48.203Z,22.65
2024-02-02T04:03:48.264Z,22.64
2024-02-02T04:04:48.216Z,22.64
2024-02-02T04:05:48.315Z,22.65
2024-02-02T04:06:48.286Z,22.64
2024-02-02T04:07:48.295Z,22.62
2024-02-02T04:08:48.323Z,22.67
2024-02-02T04:09:48.322Z,22.65
2024-02-02T04:10:48.346Z,22.65
2024-02-02T04:11:48.362Z,22.64
2024-02-02T04:12:48.400Z,22.65
2024-02-02T04:13:48.411Z,22.62
2024-02-02T04:14:48.436Z,22.65
2024-02-02T04:15:48.495Z,22.65
2024-02-02T04:16:48.474Z,22.64
2024-02-02T04:17:48.535Z,22.65
2024-02-02T04:18:48.647Z,22.65
2024-02-02T04:19:48.633Z,22.64
2024-02-02T04:20:48.594Z,22.65
2024-02-02T04:21:48.568Z,22.64
2024-02-02T04:22:48.580Z,22.65
2024-02-02T04:23:48.612Z,22.64
2024-02-02T04:24:48.620Z,22.62
2024-02-02T04:25:48.643Z,22.64
2024-02-02T04:26:48.690Z,22.68
2024-02-02T04:27:48.677Z,22.64
2024-02-02T04:28:55.868Z,22.61
2024-02-02T04:29:55.904Z,22.62
2024-02-02T04:30:55.855Z,22.60
2024-02-02T04:32:03.041Z,22.57
2024-02-02T04:33:03.103Z,22.60
2024-02-02T04:34:03.171Z,22.60
2024-02-02T04:35:03.048Z,22.61
2024-02-02T04:36:03.068Z,22.61
2024-02-02T04:37:03.044Z,22.62
2024-02-02T04:38:03.069Z,22.62
2024-02-02T04:39:03.086Z,22.61
2024-02-02T04:40:03.046Z,22.61
2024-02-02T04:41:03.042Z,22.64
2024-02-02T04:42:03.100Z,22.65
2024-02-02T04:43:03.065Z,22.61
2024-02-02T04:44:03.042Z,22.62
2024-02-02T04:45:03.068Z,22.62
2024-02-02T04:46:03.051Z,22.62
2024-02-02T04:47:03.074Z,22.65
2024-02-02T04:48:03.156Z,22.67
2024-02-02T04:49:03.362Z,22.68
2024-02-02T04:50:03.059Z,22.71
2024-02-02T04:51:03.101Z,22.72
2024-02-02T04:52:03.059Z,22.75
2024-02-02T04:53:03.063Z,22.76
2024-02-02T04:54:03.111Z,22.81
2024-02-02T04:55:03.113Z,22.81
2024-02-02T04:56:03.068Z,22.82
2024-02-02T04:57:03.091Z,22.85
2024-02-02T04:58:03.079Z,22.88
2024-02-02T04:59:03.070Z,22.88
2024-02-02T05:00:03.210Z,22.92
2024-02-02T05:01:03.067Z,22.92
2024-02-02T05:02:05.924Z,22.94
2024-02-02T05:03:03.090Z,22.95
2024-02-02T05:04:03.695Z,22.99
2024-02-02T05:05:03.229Z,22.98
2024-02-02T05:06:03.098Z,22.97
2024-02-02T05:07:03.078Z,22.98
2024-02-02T05:08:03.105Z,23.02
2024-02-02T05:09:03.111Z,23.02
2024-02-02T05:10:03.100Z,23.01
2024-02-02T05:11:03.091Z,23.02
2024-02-02T05:12:03.089Z,23.04
2024-02-02T05:13:03.108Z,23.04
2024-02-02T05:14:03.149Z,23.05
2024-02-02T05:15:03.143Z,23.04
2024-02-02T05:16:03.082Z,23.05
2024-02-02T05:17:03.091Z,23.04
2024-02-02T05:18:03.193Z,23.05
2024-02-02T05:19:03.153Z,23.06
2024-02-02T05:20:03.098Z,23.09
2024-02-02T05:21:03.144Z,23.06
2024-02-02T05:22:03.097Z,23.08
2024-02-02T05:23:03.104Z,23.11
2024-02-02T05:24:13.485Z,23.09
2024-02-02T05:25:04.115Z,23.11
2024-02-02T05:26:03.127Z,23.09
2024-02-02T05:27:03.152Z,23.09
2024-02-02T05:28:03.108Z,23.11
2024-02-02T05:29:03.098Z,23.14
2024-02-02T05:30:03.158Z,23.12
2024-02-02T05:31:03.122Z,23.15
2024-02-02T05:32:03.099Z,23.14
2024-02-02T05:33:03.180Z,23.15
2024-02-02T05:34:03.216Z,23.16
2024-02-02T05:35:03.395Z,23.15
2024-02-02T05:36:03.212Z,23.16
2024-02-02T05:37:03.258Z,23.16
2024-02-02T05:38:03.349Z,23.15
2024-02-02T05:39:03.419Z,23.16
2024-02-02T05:40:03.432Z,23.19
2024-02-02T05:41:03.495Z,23.16
2024-02-02T05:42:03.677Z,23.16
2024-02-02T05:43:03.616Z,23.16
2024-02-02T05:44:03.661Z,23.18
2024-02-02T05:45:03.757Z,23.19
2024-02-02T05:46:03.805Z,23.18
2024-02-02T05:47:03.862Z,23.16
2024-02-02T05:48:04.062Z,23.16
2024-02-02T05:49:04.031Z,23.18
2024-02-02T05:50:04.144Z,23.18
2024-02-02T05:51:04.285Z,23.18
2024-02-02T05:52:04.301Z,23.19
2024-02-02T05:53:04.307Z,23.19
2024-02-02T05:54:04.409Z,23.18
2024-02-02T05:55:04.468Z,23.19
2024-02-02T05:56:04.517Z,23.19
2024-02-02T05:57:04.593Z,23.19
2024-02-02T05:58:04.652Z,23.19
2024-02-02T05:59:04.720Z,23.22
2024-02-02T06:00:04.918Z,23.21
2024-02-02T06:01:04.892Z,23.21
2024-02-02T06:02:04.932Z,23.22
2024-02-02T06:03:05.089Z,23.23
2024-02-02T06:04:05.168Z,23.22
2024-02-02T06:05:05.136Z,23.23
2024-02-02T06:06:05.290Z,23.22
2024-02-02T06:07:05.364Z,23.25
2024-02-02T06:08:05.349Z,23.26
2024-02-02T06:09:05.558Z,23.28
2024-02-02T06:10:05.488Z,23.25
2024-02-02T06:11:05.549Z,23.26
2024-02-02T06:12:05.711Z,23.30
2024-02-02T06:13:05.686Z,23.28
2024-02-02T06:14:05.780Z,23.30
2024-02-02T06:15:05.842Z,23.30
2024-02-02T06:16:05.877Z,23.30
2024-02-02T06:17:05.919Z,23.33
2024-02-02T06:18:06.063Z,23.33
2024-02-02T06:19:06.125Z,23.33
2024-02-02T06:20:06.144Z,23.35
2024-02-02T06:21:06.179Z,23.33
2024-02-02T06:22:06.209Z,23.39
2024-02-02T06:23:07.197Z,23.39
2024-02-02T06:24:06.365Z,23.42
2024-02-02T06:25:06.474Z,23.41
2024-02-02T06:26:06.429Z,23.41
2024-02-02T06:27:06.564Z,23.46
2024-02-02T06:28:06.572Z,23.42
2024-02-02T06:29:06.577Z,23.45
2024-02-02T06:30:06.709Z,23.42
2024-02-02T06:31:06.799Z,23.44
2024-02-02T06:32:06.749Z,23.45
2024-02-02T06:33:06.881Z,23.45
2024-02-02T06:34:06.958Z,23.45
2024-02-02T06:35:06.993Z,23.42
2024-02-02T06:36:06.995Z,23.35
2024-02-02T06:37:07.002Z,23.32
2024-02-02T06:38:07.115Z,23.35
2024-02-02T06:39:07.193Z,23.38
2024-02-02T06:40:07.144Z,23.45
2024-02-02T06:41:07.172Z,23.53
2024-02-02T06:42:07.234Z,23.56
2024-02-02T06:43:07.243Z,23.52
2024-02-02T06:44:07.279Z,23.52
2024-02-02T06:45:07.385Z,23.55
2024-02-02T06:46:07.325Z,23.56
2024-02-02T06:47:07.357Z,23.63
2024-02-02T06:48:07.420Z,23.65
2024-02-02T06:49:07.415Z,23.72
2024-02-02T06:50:07.422Z,23.79
2024-02-02T06:51:07.509Z,23.80
2024-02-02T06:52:07.455Z,23.86
2024-02-02T06:53:07.747Z,23.86
2024-02-02T06:54:07.576Z,23.92
2024-02-02T06:55:07.640Z,23.95
2024-02-02T06:56:07.746Z,23.97
2024-02-02T06:57:08.700Z,24.00
2024-02-02T06:58:07.824Z,24.02
2024-02-02T06:59:07.884Z,24.06
2024-02-02T07:00:07.995Z,24.10
2024-02-02T07:01:08.080Z,24.13
2024-02-02T07:02:08.031Z,24.16
2024-02-02T07:03:08.188Z,24.14
2024-02-02T07:04:08.294Z,24.20
2024-02-02T07:05:08.189Z,24.24
2024-02-02T07:06:08.339Z,24.24
2024-02-02T07:07:08.315Z,24.31
2024-02-02T07:08:08.297Z,24.36
2024-02-02T07:09:08.415Z,24.38
2024-02-02T07:10:08.376Z,24.41
2024-02-02T07:11:08.397Z,24.43
2024-02-02T07:12:08.441Z,24.47
2024-02-02T07:13:08.470Z,24.50
2024-02-02T07:14:08.485Z,24.51
2024-02-02T07:15:08.525Z,24.54
2024-02-02T07:16:08.535Z,24.57
2024-02-02T07:17:08.555Z,24.63
2024-02-02T07:18:08.636Z,24.66
2024-02-02T07:19:08.654Z,24.67
2024-02-02T07:20:08.661Z,24.70
2024-02-02T07:21:08.840Z,24.70
2024-02-02T07:22:08.627Z,24.70
2024-02-02T07:23:08.634Z,24.72
2024-02-02T07:24:08.708Z,24.74
2024-02-02T07:25:08.657Z,24.70
2024-02-02T07:26:08.687Z,24.77
2024-02-02T07:27:08.687Z,24.80
2024-02-02T07:28:08.729Z,24.81
2024-02-02T07:29:08.717Z,24.82
2024-02-02T07:30:08.739Z,24.82
2024-02-02T07:31:08.783Z,24.85
2024-02-02T07:32:08.821Z,24.85
2024-02-02T07:33:08.947Z,24.84
2024-02-02T07:34:09.103Z,24.85
2024-02-02T07:35:08.996Z,24.85
2024-02-02T07:36:09.120Z,24.85
2024-02-02T07:37:09.053Z,24.88
2024-02-02T07:38:09.125Z,24.90
2024-02-02T07:39:09.134Z,24.82
2024-02-02T07:40:09.170Z,24.87
2024-02-02T07:41:09.178Z,24.81
2024-02-02T07:42:09.235Z,24.92
2024-02-02T07:43:09.264Z,24.94
2024-02-02T07:44:09.223Z,24.95
2024-02-02T07:45:09.263Z,24.98
2024-02-02T07:46:11.482Z,25.01
2024-02-02T07:47:09.282Z,25.07
2024-02-02T07:48:09.383Z,25.05
2024-02-02T07:49:09.420Z,25.12
2024-02-02T07:50:09.297Z,25.15
2024-02-02T07:51:09.338Z,25.19
2024-02-02T07:52:09.305Z,25.17
2024-02-02T07:53:09.727Z,25.17
2024-02-02T07:54:09.316Z,25.15
2024-02-02T07:55:09.307Z,25.14
2024-02-02T07:56:09.332Z,25.12
2024-02-02T07:57:09.309Z,25.10
2024-02-02T07:58:09.302Z,25.08
2024-02-02T07:59:09.332Z,25.10
2024-02-02T08:00:09.354Z,25.08
2024-02-02T08:01:09.328Z,25.10
2024-02-02T08:02:09.302Z,25.11
2024-02-02T08:03:12.122Z,25.11
2024-02-02T08:04:09.356Z,25.10
2024-02-02T08:05:09.470Z,25.10
2024-02-02T08:06:09.391Z,25.12
2024-02-02T08:07:09.444Z,25.17
2024-02-02T08:08:09.757Z,25.19
2024-02-02T08:09:09.348Z,25.21
2024-02-02T08:10:09.361Z,25.24
2024-02-02T08:11:09.333Z,25.24
2024-02-02T08:12:09.339Z,25.21
2024-02-02T08:13:10.471Z,25.24
2024-02-02T08:14:09.317Z,25.22
2024-02-02T08:15:09.437Z,25.26
2024-02-02T08:16:09.321Z,25.25
2024-02-02T08:17:09.346Z,25.26
2024-02-02T08:18:09.477Z,25.31
2024-02-02T08:19:09.404Z,25.32
2024-02-02T08:20:09.399Z,25.34
2024-02-02T08:21:09.427Z,25.35
2024-02-02T08:22:09.331Z,25.35
2024-02-02T08:23:09.329Z,25.36
2024-02-02T08:24:09.375Z,25.38
2024-02-02T08:25:09.337Z,25.32
2024-02-02T08:26:09.344Z,25.36
2024-02-02T08:27:09.358Z,25.42
2024-02-02T08:28:09.352Z,25.42
2024-02-02T08:29:09.354Z,25.49
2024-02-02T08:30:09.494Z,25.53
2024-02-02T08:31:09.347Z,25.46
2024-02-02T08:32:09.364Z,25.53
2024-02-02T08:33:09.555Z,25.55
2024-02-02T08:34:09.393Z,25.56
2024-02-02T08:35:09.366Z,25.53
2024-02-02T08:36:09.388Z,25.56
2024-02-02T08:37:09.354Z,25.55
2024-02-02T08:38:09.385Z,25.53
2024-02-02T08:39:09.377Z,25.55
2024-02-02T08:40:09.359Z,25.50
2024-02-02T08:41:09.356Z,25.49
2024-02-02T08:42:09.400Z,25.50
2024-02-02T08:43:09.363Z,25.49
2024-02-02T08:44:09.385Z,25.46
2024-02-02T08:45:09.380Z,25.49
2024-02-02T08:46:09.379Z,25.49
2024-02-02T08:47:09.396Z,25.45
2024-02-02T08:48:09.520Z,25.45
2024-02-02T08:49:09.492Z,25.45
2024-02-02T08:50:09.440Z,25.42
2024-02-02T08:51:09.418Z,25.42
2024-02-02T08:52:09.392Z,25.39
2024-02-02T08:53:09.408Z,25.39
2024-02-02T08:54:09.510Z,25.38
2024-02-02T08:55:09.507Z,25.39
2024-02-02T08:56:09.475Z,25.32
2024-02-02T08:57:09.543Z,25.32
2024-02-02T08:58:09.593Z,25.35
2024-02-02T08:59:09.599Z,25.31
2024-02-02T09:00:09.647Z,25.32
2024-02-02T09:01:09.617Z,25.29
2024-02-02T09:02:09.635Z,25.31
2024-02-02T09:03:09.772Z,25.29
2024-02-02T09:04:09.839Z,25.28
2024-02-02T09:05:09.708Z,25.26
2024-02-02T09:06:09.800Z,25.24
2024-02-02T09:07:09.806Z,25.22
2024-02-02T09:08:09.781Z,25.24
2024-02-02T09:09:09.900Z,25.22
2024-02-02T09:10:10.027Z,25.21
2024-02-02T09:11:09.891Z,25.21
2024-02-02T09:12:09.999Z,25.21
2024-02-02T09:13:09.939Z,25.18
2024-02-02T09:14:10.136Z,25.17
2024-02-02T09:15:10.024Z,25.17
2024-02-02T09:16:10.048Z,25.17
2024-02-02T09:17:10.048Z,25.17
2024-02-02T09:18:10.196Z,25.15
2024-02-02T09:19:10.190Z,25.12
2024-02-02T09:20:10.201Z,25.15
2024-02-02T09:21:10.266Z,25.12
2024-02-02T09:22:10.228Z,25.07
2024-02-02T09:23:10.274Z,24.99
2024-02-02T09:24:10.352Z,24.88
2024-02-02T09:25:10.453Z,24.88
2024-02-02T09:26:10.425Z,24.87
2024-02-02T09:27:10.500Z,24.82
2024-02-02T09:28:10.558Z,24.75
2024-02-02T09:29:10.750Z,24.64
2024-02-02T09:30:10.667Z,24.54
2024-02-02T09:31:10.614Z,24.43
2024-02-02T09:32:10.772Z,24.36
2024-02-02T09:33:10.866Z,24.26
2024-02-02T09:34:11.379Z,24.14
2024-02-02T09:35:10.859Z,24.06
2024-02-02T09:36:10.927Z,23.97
2024-02-02T09:37:10.884Z,23.87
2024-02-02T09:38:10.923Z,23.79
2024-02-02T09:39:11.148Z,23.70
2024-02-02T09:40:10.931Z,23.66
2024-02-02T09:41:10.976Z,23.58
2024-02-02T09:42:11.068Z,23.48
2024-02-02T09:43:11.298Z,23.45
2024-02-02T09:44:11.015Z,23.52
2024-02-02T09:45:11.125Z,23.65
2024-02-02T09:46:11.132Z,23.72
2024-02-02T09:47:11.225Z,23.76
2024-02-02T09:48:11.438Z,23.83
2024-02-02T09:49:11.446Z,23.90
2024-02-02T09:50:11.719Z,23.97
2024-02-02T09:51:11.371Z,23.99
2024-02-02T09:52:11.362Z,24.03
2024-02-02T09:53:11.362Z,24.10
2024-02-02T09:54:11.424Z,24.12
2024-02-02T09:55:11.395Z,24.13
2024-02-02T09:56:11.454Z,24.19
2024-02-02T09:57:11.478Z,24.21
2024-02-02T09:58:11.433Z,24.26
2024-02-02T09:59:11.420Z,24.31
2024-02-02T10:00:11.435Z,24.26
2024-02-02T10:01:11.489Z,24.21
2024-02-02T10:02:11.436Z,24.27
2024-02-02T10:03:11.473Z,24.27
2024-02-02T10:04:12.789Z,24.30
2024-02-02T10:05:12.119Z,24.26
2024-02-02T10:06:11.750Z,24.30
2024-02-02T10:07:11.533Z,24.28
2024-02-02T10:08:11.493Z,24.34
2024-02-02T10:09:11.569Z,24.30
2024-02-02T10:10:11.514Z,24.36
2024-02-02T10:11:11.544Z,24.37
2024-02-02T10:12:11.664Z,24.40
2024-02-02T10:13:11.677Z,24.44
2024-02-02T10:14:11.779Z,24.47
2024-02-02T10:15:11.874Z,24.50
2024-02-02T10:16:12.031Z,24.51
2024-02-02T10:17:11.965Z,24.50
2024-02-02T10:18:12.116Z,24.53
2024-02-02T10:19:12.200Z,24.56
2024-02-02T10:20:12.195Z,24.57
2024-02-02T10:21:12.293Z,24.54
2024-02-02T10:22:12.306Z,24.53
2024-02-02T10:23:12.404Z,24.51
2024-02-02T10:24:18.168Z,24.48
2024-02-02T10:25:13.413Z,24.48
2024-02-02T10:26:12.395Z,24.47
2024-02-02T10:27:12.422Z,24.41
2024-02-02T10:28:12.501Z,24.41
2024-02-02T10:29:12.451Z,24.34
2024-02-02T10:30:12.458Z,24.34
2024-02-02T10:31:12.404Z,24.34
2024-02-02T10:32:12.402Z,24.30
2024-02-02T10:33:12.956Z,24.33
2024-02-02T10:34:12.563Z,24.31
2024-02-02T10:35:12.415Z,24.38
2024-02-02T10:36:12.452Z,24.41
2024-02-02T10:37:12.451Z,24.44
2024-02-02T10:38:12.815Z,24.40
2024-02-02T10:39:13.791Z,24.41
2024-02-02T10:40:12.635Z,24.50
2024-02-02T10:41:12.708Z,24.54
2024-02-02T10:42:12.801Z,24.57
2024-02-02T10:43:12.837Z,24.58
2024-02-02T10:44:12.905Z,24.60
2024-02-02T10:45:12.974Z,24.61
2024-02-02T10:46:13.027Z,24.61
2024-02-02T10:47:13.086Z,24.63
2024-02-02T10:48:16.502Z,24.51
2024-02-02T10:49:13.283Z,24.58
2024-02-02T10:50:13.230Z,24.63
2024-02-02T10:51:13.160Z,24.61
2024-02-02T10:52:13.150Z,24.63
2024-02-02T10:53:13.139Z,24.66
2024-02-02T10:54:13.193Z,24.64
2024-02-02T10:55:13.154Z,24.64
2024-02-02T10:56:13.144Z,24.68
2024-02-02T10:57:13.188Z,24.67
2024-02-02T10:58:13.163Z,24.68
2024-02-02T10:59:13.193Z,24.63
2024-02-02T11:00:13.185Z,24.68
2024-02-02T11:01:13.334Z,24.66
2024-02-02T11:02:13.158Z,24.68
2024-02-02T11:03:13.256Z,24.67
2024-02-02T11:04:13.303Z,24.68
2024-02-02T11:05:13.163Z,24.61
2024-02-02T11:06:13.264Z,24.57
2024-02-02T11:07:13.256Z,24.53
2024-02-02T11:08:13.184Z,24.47
2024-02-02T11:09:13.184Z,24.43
2024-02-02T11:10:13.173Z,24.37
2024-02-02T11:11:13.163Z,24.33
2024-02-02T11:12:13.206Z,24.31
2024-02-02T11:13:13.172Z,24.26
2024-02-02T11:14:13.200Z,24.20
2024-02-02T11:15:13.226Z,24.19
2024-02-02T11:16:13.181Z,24.14
2024-02-02T11:17:13.198Z,24.13
2024-02-02T11:18:13.255Z,24.10
2024-02-02T11:19:13.250Z,24.07
2024-02-02T11:20:13.173Z,24.04
2024-02-02T11:21:13.227Z,24.02
2024-02-02T11:22:13.176Z,23.92
2024-02-02T11:23:13.206Z,23.90
2024-02-02T11:24:13.278Z,23.87
2024-02-02T11:25:13.212Z,23.93
2024-02-02T11:26:13.200Z,23.96
2024-02-02T11:27:13.231Z,23.96
2024-02-02T11:28:13.204Z,23.97
2024-02-02T11:29:13.388Z,24.03
2024-02-02T11:30:13.212Z,24.13
2024-02-02T11:31:13.219Z,24.21
2024-02-02T11:32:13.268Z,24.24
2024-02-02T11:33:13.500Z,24.31
2024-02-02T11:34:13.875Z,24.36
2024-02-02T11:35:13.428Z,24.37
2024-02-02T11:36:13.508Z,24.43
2024-02-02T11:37:13.564Z,24.48
2024-02-02T11:38:13.674Z,24.50
2024-02-02T11:39:13.724Z,24.51
2024-02-02T11:40:13.779Z,24.54
2024-02-02T11:41:13.838Z,24.54
2024-02-02T11:42:13.889Z,24.58
2024-02-02T11:43:14.344Z,24.58
2024-02-02T11:44:14.013Z,24.60
2024-02-02T11:45:14.102Z,24.61
2024-02-02T11:46:14.106Z,24.63
2024-02-02T11:47:14.177Z,24.61
2024-02-02T11:48:14.337Z,24.63
2024-02-02T11:49:14.449Z,24.61
2024-02-02T11:50:14.408Z,24.64
2024-02-02T11:51:14.486Z,24.66
2024-02-02T11:52:14.473Z,24.67
2024-02-02T11:53:14.601Z,24.66
2024-02-02T11:54:14.622Z,24.64
2024-02-02T11:55:14.684Z,24.66
2024-02-02T11:56:14.719Z,24.68
2024-02-02T11:57:14.829Z,24.63
2024-02-02T11:58:14.903Z,24.66
2024-02-02T11:59:14.928Z,24.66
2024-02-02T12:00:15.012Z,24.61
2024-02-02T12:01:15.086Z,24.60
2024-02-02T12:02:15.133Z,24.57
2024-02-02T12:03:15.250Z,24.60
2024-02-02T12:04:15.297Z,24.57
2024-02-02T12:05:15.389Z,24.57
2024-02-02T12:06:15.466Z,24.56
2024-02-02T12:07:15.530Z,24.51
2024-02-02T12:08:15.672Z,24.53
2024-02-02T12:09:15.897Z,24.54
2024-02-02T12:10:15.676Z,24.58
2024-02-02T12:11:17.289Z,24.57
2024-02-02T12:12:17.369Z,24.58
2024-02-02T12:13:15.759Z,24.54
2024-02-02T12:14:15.759Z,24.56
2024-02-02T12:15:16.078Z,24.56
2024-02-02T12:16:15.769Z,24.56
2024-02-02T12:17:15.765Z,24.56
2024-02-02T12:18:15.919Z,24.57
2024-02-02T12:19:15.997Z,24.58
2024-02-02T12:20:15.903Z,24.58
2024-02-02T12:21:15.867Z,24.58
2024-02-02T12:22:15.883Z,24.54
2024-02-02T12:23:16.361Z,24.56
2024-02-02T12:24:16.058Z,24.53
2024-02-02T12:25:16.122Z,24.53
2024-02-02T12:26:16.138Z,24.50
2024-02-02T12:27:16.244Z,24.47
2024-02-02T12:28:16.292Z,24.44
2024-02-02T12:29:16.296Z,24.43
2024-02-02T12:30:16.328Z,24.40
2024-02-02T12:31:16.303Z,24.37
2024-02-02T12:32:16.325Z,24.36
2024-02-02T12:33:16.475Z,24.33
2024-02-02T12:34:16.436Z,24.33
2024-02-02T12:35:17.916Z,24.30
2024-02-02T12:36:16.391Z,24.27
2024-02-02T12:37:16.385Z,24.26
2024-02-02T12:38:16.386Z,24.24
2024-02-02T12:39:16.409Z,24.21
2024-02-02T12:40:16.442Z,24.23
2024-02-02T12:41:16.398Z,24.20
2024-02-02T12:42:16.462Z,24.19
2024-02-02T12:43:16.435Z,24.16
2024-02-02T12:44:16.444Z,24.16
2024-02-02T12:45:16.584Z,24.14
2024-02-02T12:46:16.476Z,24.12
2024-02-02T12:47:16.506Z,24.07
2024-02-02T12:48:16.641Z,24.09
2024-02-02T12:49:16.657Z,24.07
2024-02-02T12:50:17.327Z,24.04
2024-02-02T12:51:17.662Z,24.06
2024-02-02T12:52:16.589Z,24.03
2024-02-02T12:53:16.635Z,24.00